As Valentia — A8SO8 — position and weather

sailwx.info

Track history (hours):
 
Tides and Currents Weather Stations Pressure Air Temp Water Temp Dewpoint Dewpoint Depression Visibility Wind Speed Wind Dir Waves Ship Positions

As Valentia

Last reported at 2017-Oct-06 09:02 UTC. Time now 2017-Oct-18 07:48 UTC.
Position N 01°12' E 103°52'.
Warning: this ship's position is 11 days out of date.

Length 190 m; draft 12.8 m.

Type: Cargo ship. MMSI: 636091770.

Date/timePositionNaut miles runAvg speedWind from/ knotsBaromVisibWave heightAir tempDewpointWater temp
2017-Oct-06 09:02N 01°12' E 103°52'0 3.1
2017-Oct-06 08:57N 01°12' E 103°52'1 2.6
2017-Oct-06 08:27N 01°13' E 103°53'1 2.8
2017-Oct-06 08:00N 01°13' E 103°54'5 8.2
2017-Oct-06 07:25N 01°17' E 103°58'0 0.0
2017-Oct-06 06:36N 01°17' E 103°58'0 0.0
2017-Oct-06 06:24N 01°17' E 103°58'0 0.0
2017-Oct-06 06:00N 01°17' E 103°58'0 0.0
2017-Oct-06 05:23N 01°17' E 103°58'0 0.0
2017-Oct-06 04:51N 01°17' E 103°58'0 0.0
2017-Oct-06 04:22N 01°17' E 103°58'0 0.0
2017-Oct-06 03:51N 01°17' E 103°58'0 0.1
2017-Oct-06 03:20N 01°17' E 103°57'0 0.4
2017-Oct-06 02:53N 01°17' E 103°57'0 0.1
2017-Oct-06 02:01N 01°17' E 103°57'2528.8
2017-Oct-06 01:08N 01°13' E 103°32'212.7
2017-Oct-06 01:00N 01°12' E 103°34'612.1
2017-Oct-06 00:30N 01°11' E 103°40'611.7
2017-Oct-06 00:00N 01°09' E 103°45'612.0
2017-Oct-05 23:30N 01°12' E 103°51'914.7
2017-Oct-05 22:55N 01°17' E 103°57'0 0.0
2017-Oct-05 12:40N 01°17' E 103°57'0 0.2
2017-Oct-05 12:16N 01°17' E 103°57'0 0.6
2017-Oct-05 11:58N 01°17' E 103°58'2 3.6
2017-Oct-05 11:30N 01°16' E 103°59'  
Track history (hours):
 
Tides and Currents Weather Stations Pressure Air Temp Water Temp Dewpoint Dewpoint Depression Visibility Wind Speed Wind Dir Waves Ship Positions

As Valentia

Last reported at 2017-Oct-06 09:02 UTC. Time now 2017-Oct-18 07:48 UTC.
Position N 01°12' E 103°52'.
Warning: this ship's position is 11 days out of date.

Length 190 m; draft 12.8 m.

Type: Cargo ship. MMSI: 636091770.

Date/timePositionNaut miles runAvg speedWind from/ knotsBaromVisibWave heightAir tempDewpointWater temp
2017-Oct-06 09:02N 01°12' E 103°52'0 3.1
2017-Oct-06 08:57N 01°12' E 103°52'1 2.6
2017-Oct-06 08:27N 01°13' E 103°53'1 2.8
2017-Oct-06 08:00N 01°13' E 103°54'5 8.2
2017-Oct-06 07:25N 01°17' E 103°58'0 0.0
2017-Oct-06 06:36N 01°17' E 103°58'0 0.0
2017-Oct-06 06:24N 01°17' E 103°58'0 0.0
2017-Oct-06 06:00N 01°17' E 103°58'0 0.0
2017-Oct-06 05:23N 01°17' E 103°58'0 0.0
2017-Oct-06 04:51N 01°17' E 103°58'0 0.0
2017-Oct-06 04:22N 01°17' E 103°58'0 0.0
2017-Oct-06 03:51N 01°17' E 103°58'0 0.1
2017-Oct-06 03:20N 01°17' E 103°57'0 0.4
2017-Oct-06 02:53N 01°17' E 103°57'0 0.1
2017-Oct-06 02:01N 01°17' E 103°57'2528.8
2017-Oct-06 01:08N 01°13' E 103°32'212.7
2017-Oct-06 01:00N 01°12' E 103°34'612.1
2017-Oct-06 00:30N 01°11' E 103°40'611.7
2017-Oct-06 00:00N 01°09' E 103°45'612.0
2017-Oct-05 23:30N 01°12' E 103°51'914.7
2017-Oct-05 22:55N 01°17' E 103°57'0 0.0
2017-Oct-05 12:40N 01°17' E 103°57'0 0.2
2017-Oct-05 12:16N 01°17' E 103°57'0 0.6
2017-Oct-05 11:58N 01°17' E 103°58'2 3.6
2017-Oct-05 11:30N 01°16' E 103°59'  

Dump ship's entire track history